sensor_id;sensor_type;location;lat;lon;timestamp;temperature;humidity
84330;SHT31;74510;42.676;23.432;2023-12-28T00:02:20;1.25;88.81
84330;SHT31;74510;42.676;23.432;2023-12-28T00:04:46;1.23;88.20
84330;SHT31;74510;42.676;23.432;2023-12-28T00:07:11;1.15;86.85
84330;SHT31;74510;42.676;23.432;2023-12-28T00:09:37;1.12;88.23
84330;SHT31;74510;42.676;23.432;2023-12-28T00:12:03;1.15;87.04
84330;SHT31;74510;42.676;23.432;2023-12-28T00:14:28;1.23;88.43
84330;SHT31;74510;42.676;23.432;2023-12-28T00:16:54;1.16;89.10
84330;SHT31;74510;42.676;23.432;2023-12-28T00:19:19;1.23;88.89
84330;SHT31;74510;42.676;23.432;2023-12-28T00:21:46;1.31;87.80
84330;SHT31;74510;42.676;23.432;2023-12-28T00:24:11;1.39;87.13
84330;SHT31;74510;42.676;23.432;2023-12-28T00:26:37;1.29;86.14
84330;SHT31;74510;42.676;23.432;2023-12-28T00:29:02;1.09;86.32
84330;SHT31;74510;42.676;23.432;2023-12-28T00:31:27;1.11;86.32
84330;SHT31;74510;42.676;23.432;2023-12-28T00:33:53;0.92;86.01
84330;SHT31;74510;42.676;23.432;2023-12-28T00:36:18;0.84;86.05
84330;SHT31;74510;42.676;23.432;2023-12-28T00:38:44;0.75;85.94
84330;SHT31;74510;42.676;23.432;2023-12-28T00:41:09;0.74;85.91
84330;SHT31;74510;42.676;23.432;2023-12-28T00:43:34;0.52;86.37
84330;SHT31;74510;42.676;23.432;2023-12-28T00:46:00;0.43;86.25
84330;SHT31;74510;42.676;23.432;2023-12-28T00:48:25;0.42;86.63
84330;SHT31;74510;42.676;23.432;2023-12-28T00:50:51;0.30;87.22
84330;SHT31;74510;42.676;23.432;2023-12-28T00:53:16;0.23;87.33
84330;SHT31;74510;42.676;23.432;2023-12-28T00:55:41;0.23;87.46
84330;SHT31;74510;42.676;23.432;2023-12-28T00:58:07;0.20;88.01
84330;SHT31;74510;42.676;23.432;2023-12-28T01:00:32;0.12;88.04
84330;SHT31;74510;42.676;23.432;2023-12-28T01:02:58;0.13;88.36
84330;SHT31;74510;42.676;23.432;2023-12-28T01:05:23;0.16;88.57
84330;SHT31;74510;42.676;23.432;2023-12-28T01:07:51;0.16;88.82
84330;SHT31;74510;42.676;23.432;2023-12-28T01:10:16;0.23;88.68
84330;SHT31;74510;42.676;23.432;2023-12-28T01:12:42;0.13;89.01
84330;SHT31;74510;42.676;23.432;2023-12-28T01:15:08;0.07;89.64
84330;SHT31;74510;42.676;23.432;2023-12-28T01:17:33;0.15;89.98
84330;SHT31;74510;42.676;23.432;2023-12-28T01:19:59;0.19;89.62
84330;SHT31;74510;42.676;23.432;2023-12-28T01:22:24;0.13;89.83
84330;SHT31;74510;42.676;23.432;2023-12-28T01:24:50;0.15;90.25
84330;SHT31;74510;42.676;23.432;2023-12-28T01:27:15;0.15;90.51
84330;SHT31;74510;42.676;23.432;2023-12-28T01:29:41;0.13;90.85
84330;SHT31;74510;42.676;23.432;2023-12-28T01:32:06;0.13;90.95
84330;SHT31;74510;42.676;23.432;2023-12-28T01:34:32;0.27;90.37
84330;SHT31;74510;42.676;23.432;2023-12-28T01:36:57;0.29;90.29
84330;SHT31;74510;42.676;23.432;2023-12-28T01:39:22;0.32;90.04
84330;SHT31;74510;42.676;23.432;2023-12-28T01:41:48;0.30;90.30
84330;SHT31;74510;42.676;23.432;2023-12-28T01:44:13;0.30;90.26
84330;SHT31;74510;42.676;23.432;2023-12-28T01:46:40;0.30;90.21
84330;SHT31;74510;42.676;23.432;2023-12-28T01:49:05;0.30;90.27
84330;SHT31;74510;42.676;23.432;2023-12-28T01:51:31;0.33;90.43
84330;SHT31;74510;42.676;23.432;2023-12-28T01:53:57;0.33;90.45
84330;SHT31;74510;42.676;23.432;2023-12-28T01:56:23;0.30;90.31
84330;SHT31;74510;42.676;23.432;2023-12-28T01:58:49;0.33;90.44
84330;SHT31;74510;42.676;23.432;2023-12-28T02:01:16;0.33;90.28
84330;SHT31;74510;42.676;23.432;2023-12-28T02:04:01;0.30;89.87
84330;SHT31;74510;42.676;23.432;2023-12-28T02:06:27;0.30;90.31
84330;SHT31;74510;42.676;23.432;2023-12-28T02:08:53;0.27;90.35
84330;SHT31;74510;42.676;23.432;2023-12-28T02:11:19;0.26;90.76
84330;SHT31;74510;42.676;23.432;2023-12-28T02:13:44;0.26;90.87
84330;SHT31;74510;42.676;23.432;2023-12-28T02:16:13;0.23;90.56
84330;SHT31;74510;42.676;23.432;2023-12-28T02:18:47;0.25;90.62
84330;SHT31;74510;42.676;23.432;2023-12-28T02:21:15;0.20;90.48
84330;SHT31;74510;42.676;23.432;2023-12-28T02:23:48;0.19;90.17
84330;SHT31;74510;42.676;23.432;2023-12-28T02:26:15;0.16;89.82
84330;SHT31;74510;42.676;23.432;2023-12-28T02:28:41;0.16;89.46
84330;SHT31;74510;42.676;23.432;2023-12-28T02:31:07;0.06;89.23
84330;SHT31;74510;42.676;23.432;2023-12-28T02:33:40;-0.01;89.52
84330;SHT31;74510;42.676;23.432;2023-12-28T02:36:10;-0.02;89.10
84330;SHT31;74510;42.676;23.432;2023-12-28T02:38:37;-0.11;89.48
84330;SHT31;74510;42.676;23.432;2023-12-28T02:41:04;-0.19;89.84
84330;SHT31;74510;42.676;23.432;2023-12-28T02:43:30;-0.22;89.99
84330;SHT31;74510;42.676;23.432;2023-12-28T02:45:55;-0.25;89.71
84330;SHT31;74510;42.676;23.432;2023-12-28T02:48:21;-0.16;89.01
84330;SHT31;74510;42.676;23.432;2023-12-28T02:50:46;-0.21;89.21
84330;SHT31;74510;42.676;23.432;2023-12-28T02:53:12;-0.28;88.83
84330;SHT31;74510;42.676;23.432;2023-12-28T02:55:38;-0.15;88.40
84330;SHT31;74510;42.676;23.432;2023-12-28T02:58:03;-0.06;88.05
84330;SHT31;74510;42.676;23.432;2023-12-28T03:00:29;-0.06;87.47
84330;SHT31;74510;42.676;23.432;2023-12-28T03:02:54;-0.28;87.74
84330;SHT31;74510;42.676;23.432;2023-12-28T03:05:20;-0.40;88.50
84330;SHT31;74510;42.676;23.432;2023-12-28T03:07:45;-0.49;87.83
84330;SHT31;74510;42.676;23.432;2023-12-28T03:10:11;-0.50;88.36
84330;SHT31;74510;42.676;23.432;2023-12-28T03:12:36;-0.63;88.87
84330;SHT31;74510;42.676;23.432;2023-12-28T03:15:03;-0.66;89.49
84330;SHT31;74510;42.676;23.432;2023-12-28T03:17:29;-0.67;89.82
84330;SHT31;74510;42.676;23.432;2023-12-28T03:19:56;-0.53;89.65
84330;SHT31;74510;42.676;23.432;2023-12-28T03:22:21;-0.59;90.12
84330;SHT31;74510;42.676;23.432;2023-12-28T03:24:47;-0.64;90.46
84330;SHT31;74510;42.676;23.432;2023-12-28T03:27:12;-0.66;90.70
84330;SHT31;74510;42.676;23.432;2023-12-28T03:29:38;-0.67;90.84
84330;SHT31;74510;42.676;23.432;2023-12-28T03:32:03;-0.69;91.05
84330;SHT31;74510;42.676;23.432;2023-12-28T03:34:29;-0.67;91.04
84330;SHT31;74510;42.676;23.432;2023-12-28T03:36:55;-0.67;90.98
84330;SHT31;74510;42.676;23.432;2023-12-28T03:39:22;-0.70;91.24
84330;SHT31;74510;42.676;23.432;2023-12-28T03:41:48;-0.73;91.58
84330;SHT31;74510;42.676;23.432;2023-12-28T03:44:14;-0.73;91.36
84330;SHT31;74510;42.676;23.432;2023-12-28T03:46:39;-0.71;91.08
84330;SHT31;74510;42.676;23.432;2023-12-28T03:49:05;-0.64;90.92
84330;SHT31;74510;42.676;23.432;2023-12-28T03:51:30;-0.69;90.88
84330;SHT31;74510;42.676;23.432;2023-12-28T03:53:55;-0.69;91.23
84330;SHT31;74510;42.676;23.432;2023-12-28T03:56:22;-0.64;91.57
84330;SHT31;74510;42.676;23.432;2023-12-28T03:58:49;-0.56;91.50
84330;SHT31;74510;42.676;23.432;2023-12-28T04:01:18;-0.26;89.88
84330;SHT31;74510;42.676;23.432;2023-12-28T04:03:44;-0.16;88.75
84330;SHT31;74510;42.676;23.432;2023-12-28T04:06:10;-0.12;88.76
84330;SHT31;74510;42.676;23.432;2023-12-28T04:08:35;-0.28;88.67
84330;SHT31;74510;42.676;23.432;2023-12-28T04:11:01;-0.40;88.96
84330;SHT31;74510;42.676;23.432;2023-12-28T04:13:26;-0.59;89.47
84330;SHT31;74510;42.676;23.432;2023-12-28T04:15:51;-0.70;89.97
84330;SHT31;74510;42.676;23.432;2023-12-28T04:18:17;-0.73;90.55
84330;SHT31;74510;42.676;23.432;2023-12-28T04:20:43;-0.67;90.58
84330;SHT31;74510;42.676;23.432;2023-12-28T04:23:09;-0.69;90.14
84330;SHT31;74510;42.676;23.432;2023-12-28T04:25:35;-0.70;89.86
84330;SHT31;74510;42.676;23.432;2023-12-28T04:28:00;-0.76;91.25
84330;SHT31;74510;42.676;23.432;2023-12-28T04:30:26;-0.74;92.10
84330;SHT31;74510;42.676;23.432;2023-12-28T04:32:52;-0.70;92.00
84330;SHT31;74510;42.676;23.432;2023-12-28T04:35:18;-0.62;91.70
84330;SHT31;74510;42.676;23.432;2023-12-28T04:37:43;-0.66;91.47
84330;SHT31;74510;42.676;23.432;2023-12-28T04:40:09;-0.60;91.52
84330;SHT31;74510;42.676;23.432;2023-12-28T04:42:34;-0.66;91.70
84330;SHT31;74510;42.676;23.432;2023-12-28T04:45:00;-0.64;92.06
84330;SHT31;74510;42.676;23.432;2023-12-28T04:47:25;-0.56;92.32
84330;SHT31;74510;42.676;23.432;2023-12-28T04:49:51;-0.62;92.40
84330;SHT31;74510;42.676;23.432;2023-12-28T04:52:16;-0.46;92.76
84330;SHT31;74510;42.676;23.432;2023-12-28T04:54:41;-0.48;92.46
84330;SHT31;74510;42.676;23.432;2023-12-28T04:57:07;-0.53;91.80
84330;SHT31;74510;42.676;23.432;2023-12-28T04:59:41;-0.60;91.69
84330;SHT31;74510;42.676;23.432;2023-12-28T05:02:07;-0.63;91.12
84330;SHT31;74510;42.676;23.432;2023-12-28T05:04:33;-0.74;90.50
84330;SHT31;74510;42.676;23.432;2023-12-28T05:06:58;-0.90;91.49
84330;SHT31;74510;42.676;23.432;2023-12-28T05:09:24;-1.11;91.69
84330;SHT31;74510;42.676;23.432;2023-12-28T05:11:49;-1.21;92.08
84330;SHT31;74510;42.676;23.432;2023-12-28T05:14:14;-1.31;92.30
84330;SHT31;74510;42.676;23.432;2023-12-28T05:16:40;-1.36;92.34
84330;SHT31;74510;42.676;23.432;2023-12-28T05:19:05;-1.42;92.63
84330;SHT31;74510;42.676;23.432;2023-12-28T05:21:31;-1.40;92.60
84330;SHT31;74510;42.676;23.432;2023-12-28T05:23:56;-1.49;92.89
84330;SHT31;74510;42.676;23.432;2023-12-28T05:26:22;-1.48;92.76
84330;SHT31;74510;42.676;23.432;2023-12-28T05:28:48;-1.42;92.74
84330;SHT31;74510;42.676;23.432;2023-12-28T05:31:14;-1.39;92.84
84330;SHT31;74510;42.676;23.432;2023-12-28T05:33:39;-1.52;92.99
84330;SHT31;74510;42.676;23.432;2023-12-28T05:36:05;-1.52;93.42
84330;SHT31;74510;42.676;23.432;2023-12-28T05:38:31;-1.58;93.27
84330;SHT31;74510;42.676;23.432;2023-12-28T05:40:56;-1.64;93.02
84330;SHT31;74510;42.676;23.432;2023-12-28T05:43:22;-1.70;92.97
84330;SHT31;74510;42.676;23.432;2023-12-28T05:45:47;-1.74;93.52
84330;SHT31;74510;42.676;23.432;2023-12-28T05:48:12;-1.74;93.58
84330;SHT31;74510;42.676;23.432;2023-12-28T05:50:38;-1.79;93.83
84330;SHT31;74510;42.676;23.432;2023-12-28T05:53:03;-1.73;93.89
84330;SHT31;74510;42.676;23.432;2023-12-28T05:55:29;-1.74;93.50
84330;SHT31;74510;42.676;23.432;2023-12-28T05:57:54;-1.64;93.46
84330;SHT31;74510;42.676;23.432;2023-12-28T06:00:20;-1.70;93.02
84330;SHT31;74510;42.676;23.432;2023-12-28T06:02:51;-1.66;92.98
84330;SHT31;74510;42.676;23.432;2023-12-28T06:05:17;-1.60;92.23
84330;SHT31;74510;42.676;23.432;2023-12-28T06:07:43;-1.62;92.01
84330;SHT31;74510;42.676;23.432;2023-12-28T06:10:09;-1.52;90.74
84330;SHT31;74510;42.676;23.432;2023-12-28T06:12:34;-1.46;90.34
84330;SHT31;74510;42.676;23.432;2023-12-28T06:15:00;-1.55;91.09
84330;SHT31;74510;42.676;23.432;2023-12-28T06:17:26;-1.43;89.87
84330;SHT31;74510;42.676;23.432;2023-12-28T06:19:51;-1.59;90.73
84330;SHT31;74510;42.676;23.432;2023-12-28T06:22:17;-1.55;91.02
84330;SHT31;74510;42.676;23.432;2023-12-28T06:24:42;-1.63;92.02
84330;SHT31;74510;42.676;23.432;2023-12-28T06:27:08;-1.64;92.45
84330;SHT31;74510;42.676;23.432;2023-12-28T06:29:33;-1.63;92.97
84330;SHT31;74510;42.676;23.432;2023-12-28T06:31:59;-1.66;93.08
84330;SHT31;74510;42.676;23.432;2023-12-28T06:34:24;-1.53;92.80
84330;SHT31;74510;42.676;23.432;2023-12-28T06:36:50;-1.48;92.25
84330;SHT31;74510;42.676;23.432;2023-12-28T06:39:16;-1.35;91.41
84330;SHT31;74510;42.676;23.432;2023-12-28T06:41:41;-1.29;91.01
84330;SHT31;74510;42.676;23.432;2023-12-28T06:44:06;-1.32;91.15
84330;SHT31;74510;42.676;23.432;2023-12-28T06:46:32;-1.24;91.42
84330;SHT31;74510;42.676;23.432;2023-12-28T06:48:57;-1.18;91.65
84330;SHT31;74510;42.676;23.432;2023-12-28T06:51:24;-1.15;91.63
84330;SHT31;74510;42.676;23.432;2023-12-28T06:53:50;-1.07;91.83
84330;SHT31;74510;42.676;23.432;2023-12-28T06:56:16;-1.08;91.90
84330;SHT31;74510;42.676;23.432;2023-12-28T06:58:42;-1.05;91.85
84330;SHT31;74510;42.676;23.432;2023-12-28T07:01:07;-1.13;92.92
84330;SHT31;74510;42.676;23.432;2023-12-28T07:03:33;-1.13;93.21
84330;SHT31;74510;42.676;23.432;2023-12-28T07:05:59;-1.11;93.27
84330;SHT31;74510;42.676;23.432;2023-12-28T07:08:25;-1.08;93.49
84330;SHT31;74510;42.676;23.432;2023-12-28T07:10:50;-0.98;93.50
84330;SHT31;74510;42.676;23.432;2023-12-28T07:13:16;-0.90;93.40
84330;SHT31;74510;42.676;23.432;2023-12-28T07:15:41;-0.77;93.16
84330;SHT31;74510;42.676;23.432;2023-12-28T07:18:06;-0.69;93.15
84330;SHT31;74510;42.676;23.432;2023-12-28T07:20:32;-0.59;93.14
84330;SHT31;74510;42.676;23.432;2023-12-28T07:22:57;-0.44;93.08
84330;SHT31;74510;42.676;23.432;2023-12-28T07:25:23;-0.35;92.86
84330;SHT31;74510;42.676;23.432;2023-12-28T07:27:48;-0.25;92.66
84330;SHT31;74510;42.676;23.432;2023-12-28T07:30:13;-0.12;92.50
84330;SHT31;74510;42.676;23.432;2023-12-28T07:32:41;-0.02;92.50
84330;SHT31;74510;42.676;23.432;2023-12-28T07:35:07;0.10;92.49
84330;SHT31;74510;42.676;23.432;2023-12-28T07:37:32;0.26;91.98
84330;SHT31;74510;42.676;23.432;2023-12-28T07:43:19;0.50;90.98
84330;SHT31;74510;42.676;23.432;2023-12-28T07:45:45;0.56;90.35
84330;SHT31;74510;42.676;23.432;2023-12-28T07:48:10;0.64;90.31
84330;SHT31;74510;42.676;23.432;2023-12-28T07:50:36;0.71;89.75
84330;SHT31;74510;42.676;23.432;2023-12-28T07:53:01;0.78;89.89
84330;SHT31;74510;42.676;23.432;2023-12-28T07:55:27;0.78;89.25
84330;SHT31;74510;42.676;23.432;2023-12-28T07:57:52;0.85;89.32
84330;SHT31;74510;42.676;23.432;2023-12-28T08:00:18;0.91;89.36
84330;SHT31;74510;42.676;23.432;2023-12-28T08:02:43;0.98;89.21
84330;SHT31;74510;42.676;23.432;2023-12-28T08:05:09;1.05;89.07
84330;SHT31;74510;42.676;23.432;2023-12-28T08:07:34;1.12;89.13
84330;SHT31;74510;42.676;23.432;2023-12-28T08:10:00;1.22;88.88
84330;SHT31;74510;42.676;23.432;2023-12-28T08:12:26;1.23;89.07
84330;SHT31;74510;42.676;23.432;2023-12-28T08:14:55;1.31;89.19
84330;SHT31;74510;42.676;23.432;2023-12-28T08:17:20;1.35;88.73
84330;SHT31;74510;42.676;23.432;2023-12-28T08:19:45;1.43;88.63
84330;SHT31;74510;42.676;23.432;2023-12-28T08:22:11;1.50;88.79
84330;SHT31;74510;42.676;23.432;2023-12-28T08:24:36;1.73;88.75
84330;SHT31;74510;42.676;23.432;2023-12-28T08:27:02;1.74;88.21
84330;SHT31;74510;42.676;23.432;2023-12-28T08:29:28;1.84;87.81
84330;SHT31;74510;42.676;23.432;2023-12-28T08:31:53;1.98;88.23
84330;SHT31;74510;42.676;23.432;2023-12-28T08:34:20;2.07;87.51
84330;SHT31;74510;42.676;23.432;2023-12-28T08:36:46;2.07;87.46
84330;SHT31;74510;42.676;23.432;2023-12-28T08:39:11;2.12;87.01
84330;SHT31;74510;42.676;23.432;2023-12-28T08:41:37;2.25;87.48
84330;SHT31;74510;42.676;23.432;2023-12-28T08:44:02;2.43;86.23
84330;SHT31;74510;42.676;23.432;2023-12-28T08:46:28;2.49;86.06
84330;SHT31;74510;42.676;23.432;2023-12-28T08:48:54;2.56;86.21
84330;SHT31;74510;42.676;23.432;2023-12-28T08:51:19;2.77;85.54
84330;SHT31;74510;42.676;23.432;2023-12-28T08:53:46;2.86;85.19
84330;SHT31;74510;42.676;23.432;2023-12-28T08:56:19;2.88;85.44
84330;SHT31;74510;42.676;23.432;2023-12-28T08:58:46;3.03;85.23
84330;SHT31;74510;42.676;23.432;2023-12-28T09:01:23;3.09;84.92
84330;SHT31;74510;42.676;23.432;2023-12-28T09:03:53;3.26;84.68
84330;SHT31;74510;42.676;23.432;2023-12-28T09:06:20;3.40;84.38
84330;SHT31;74510;42.676;23.432;2023-12-28T09:08:48;3.55;84.67
84330;SHT31;74510;42.676;23.432;2023-12-28T09:11:14;3.62;83.68
84330;SHT31;74510;42.676;23.432;2023-12-28T09:13:40;3.72;83.48
84330;SHT31;74510;42.676;23.432;2023-12-28T09:16:09;3.69;83.35
84330;SHT31;74510;42.676;23.432;2023-12-28T09:18:44;3.73;83.14
84330;SHT31;74510;42.676;23.432;2023-12-28T09:21:12;3.77;83.48
84330;SHT31;74510;42.676;23.432;2023-12-28T09:23:38;3.84;83.08
84330;SHT31;74510;42.676;23.432;2023-12-28T09:26:05;3.73;84.21
84330;SHT31;74510;42.676;23.432;2023-12-28T09:28:40;3.67;84.54
84330;SHT31;74510;42.676;23.432;2023-12-28T09:31:06;3.66;84.85
84330;SHT31;74510;42.676;23.432;2023-12-28T09:33:32;3.59;84.79
84330;SHT31;74510;42.676;23.432;2023-12-28T09:35:58;3.67;85.16
84330;SHT31;74510;42.676;23.432;2023-12-28T09:38:23;3.82;84.44
84330;SHT31;74510;42.676;23.432;2023-12-28T09:40:53;3.84;84.43
84330;SHT31;74510;42.676;23.432;2023-12-28T09:43:26;3.93;83.98
84330;SHT31;74510;42.676;23.432;2023-12-28T09:45:54;4.08;83.70
84330;SHT31;74510;42.676;23.432;2023-12-28T09:48:21;4.25;83.80
84330;SHT31;74510;42.676;23.432;2023-12-28T09:50:53;4.32;83.45
84330;SHT31;74510;42.676;23.432;2023-12-28T09:53:22;4.42;82.91
84330;SHT31;74510;42.676;23.432;2023-12-28T09:55:48;4.40;82.99
84330;SHT31;74510;42.676;23.432;2023-12-28T09:58:16;4.44;83.01
84330;SHT31;74510;42.676;23.432;2023-12-28T10:00:44;4.62;82.72
84330;SHT31;74510;42.676;23.432;2023-12-28T10:03:09;4.72;81.53
84330;SHT31;74510;42.676;23.432;2023-12-28T10:05:36;4.72;81.42
84330;SHT31;74510;42.676;23.432;2023-12-28T10:08:01;4.87;81.74
84330;SHT31;74510;42.676;23.432;2023-12-28T10:10:29;5.11;81.26
84330;SHT31;74510;42.676;23.432;2023-12-28T10:12:54;5.34;79.81
84330;SHT31;74510;42.676;23.432;2023-12-28T10:15:20;5.52;79.15
84330;SHT31;74510;42.676;23.432;2023-12-28T10:17:46;5.56;78.66
84330;SHT31;74510;42.676;23.432;2023-12-28T10:20:12;5.65;78.53
84330;SHT31;74510;42.676;23.432;2023-12-28T10:22:37;5.62;77.59
84330;SHT31;74510;42.676;23.432;2023-12-28T10:25:03;5.48;78.24
84330;SHT31;74510;42.676;23.432;2023-12-28T10:27:29;5.63;78.26
84330;SHT31;74510;42.676;23.432;2023-12-28T10:29:55;5.78;77.39
84330;SHT31;74510;42.676;23.432;2023-12-28T10:32:24;5.80;77.64
84330;SHT31;74510;42.676;23.432;2023-12-28T10:34:53;5.85;77.43
84330;SHT31;74510;42.676;23.432;2023-12-28T10:37:19;5.93;77.10
84330;SHT31;74510;42.676;23.432;2023-12-28T10:39:47;5.92;77.29
84330;SHT31;74510;42.676;23.432;2023-12-28T10:42:18;6.02;77.33
84330;SHT31;74510;42.676;23.432;2023-12-28T10:44:46;6.33;76.54
84330;SHT31;74510;42.676;23.432;2023-12-28T10:47:15;6.51;76.13
84330;SHT31;74510;42.676;23.432;2023-12-28T10:49:43;6.61;75.00
84330;SHT31;74510;42.676;23.432;2023-12-28T10:52:10;6.69;75.03
84330;SHT31;74510;42.676;23.432;2023-12-28T10:54:48;6.84;74.94
84330;SHT31;74510;42.676;23.432;2023-12-28T10:57:33;6.84;74.92
84330;SHT31;74510;42.676;23.432;2023-12-28T11:00:13;7.00;74.75
84330;SHT31;74510;42.676;23.432;2023-12-28T11:02:52;7.26;74.03
84330;SHT31;74510;42.676;23.432;2023-12-28T11:05:19;7.16;74.08
84330;SHT31;74510;42.676;23.432;2023-12-28T11:07:47;7.23;73.91
84330;SHT31;74510;42.676;23.432;2023-12-28T11:10:13;7.22;73.85
84330;SHT31;74510;42.676;23.432;2023-12-28T11:12:39;7.34;73.37
84330;SHT31;74510;42.676;23.432;2023-12-28T11:15:05;7.30;73.55
84330;SHT31;74510;42.676;23.432;2023-12-28T11:17:31;7.44;73.46
84330;SHT31;74510;42.676;23.432;2023-12-28T11:19:57;7.58;72.66
84330;SHT31;74510;42.676;23.432;2023-12-28T11:22:24;7.51;72.33
84330;SHT31;74510;42.676;23.432;2023-12-28T11:24:52;7.63;71.63
84330;SHT31;74510;42.676;23.432;2023-12-28T11:27:19;7.77;70.92
84330;SHT31;74510;42.676;23.432;2023-12-28T11:29:44;7.88;69.25
84330;SHT31;74510;42.676;23.432;2023-12-28T11:32:19;7.91;69.17
84330;SHT31;74510;42.676;23.432;2023-12-28T11:34:56;8.03;70.26
84330;SHT31;74510;42.676;23.432;2023-12-28T11:37:23;8.03;70.79
84330;SHT31;74510;42.676;23.432;2023-12-28T11:39:51;7.93;71.02
84330;SHT31;74510;42.676;23.432;2023-12-28T11:42:20;8.07;71.25
84330;SHT31;74510;42.676;23.432;2023-12-28T11:58:18;8.80;68.35
84330;SHT31;74510;42.676;23.432;2023-12-28T12:00:43;8.92;69.05
84330;SHT31;74510;42.676;23.432;2023-12-28T12:03:12;9.26;67.74
84330;SHT31;74510;42.676;23.432;2023-12-28T12:05:38;9.40;67.45
84330;SHT31;74510;42.676;23.432;2023-12-28T12:08:09;9.69;65.98
84330;SHT31;74510;42.676;23.432;2023-12-28T12:10:36;9.77;64.79
84330;SHT31;74510;42.676;23.432;2023-12-28T12:13:08;9.80;64.11
84330;SHT31;74510;42.676;23.432;2023-12-28T12:15:33;9.73;63.89
84330;SHT31;74510;42.676;23.432;2023-12-28T12:18:00;9.74;64.49
84330;SHT31;74510;42.676;23.432;2023-12-28T12:20:26;9.78;65.47
84330;SHT31;74510;42.676;23.432;2023-12-28T12:22:51;9.97;65.11
84330;SHT31;74510;42.676;23.432;2023-12-28T12:25:17;10.25;64.14
84330;SHT31;74510;42.676;23.432;2023-12-28T12:27:45;10.50;61.62
84330;SHT31;74510;42.676;23.432;2023-12-28T12:30:10;10.32;62.27
84330;SHT31;74510;42.676;23.432;2023-12-28T12:32:36;10.25;62.28
84330;SHT31;74510;42.676;23.432;2023-12-28T12:35:08;10.48;60.33
84330;SHT31;74510;42.676;23.432;2023-12-28T12:37:34;10.81;60.17
84330;SHT31;74510;42.676;23.432;2023-12-28T12:39:59;10.66;61.69
84330;SHT31;74510;42.676;23.432;2023-12-28T12:42:25;10.59;62.30
84330;SHT31;74510;42.676;23.432;2023-12-28T12:44:50;10.38;62.71
84330;SHT31;74510;42.676;23.432;2023-12-28T12:47:16;10.31;62.59
84330;SHT31;74510;42.676;23.432;2023-12-28T12:49:41;10.35;62.50
84330;SHT31;74510;42.676;23.432;2023-12-28T12:52:09;10.34;61.97
84330;SHT31;74510;42.676;23.432;2023-12-28T12:54:35;10.18;61.98
84330;SHT31;74510;42.676;23.432;2023-12-28T12:57:00;10.04;62.41
84330;SHT31;74510;42.676;23.432;2023-12-28T12:59:26;10.01;61.82
84330;SHT31;74510;42.676;23.432;2023-12-28T13:01:52;9.87;61.69
84330;SHT31;74510;42.676;23.432;2023-12-28T13:04:18;9.76;63.11
84330;SHT31;74510;42.676;23.432;2023-12-28T13:06:44;9.57;63.41
84330;SHT31;74510;42.676;23.432;2023-12-28T13:09:09;9.56;63.66
84330;SHT31;74510;42.676;23.432;2023-12-28T13:11:37;9.66;63.58
84330;SHT31;74510;42.676;23.432;2023-12-28T13:14:02;9.56;63.87
84330;SHT31;74510;42.676;23.432;2023-12-28T13:16:28;9.54;63.54
84330;SHT31;74510;42.676;23.432;2023-12-28T13:18:53;9.53;64.17
84330;SHT31;74510;42.676;23.432;2023-12-28T13:21:19;9.53;63.16
84330;SHT31;74510;42.676;23.432;2023-12-28T13:23:44;9.56;63.20
84330;SHT31;74510;42.676;23.432;2023-12-28T13:26:10;9.50;63.56
84330;SHT31;74510;42.676;23.432;2023-12-28T13:28:35;9.43;63.50
84330;SHT31;74510;42.676;23.432;2023-12-28T13:31:00;9.44;63.18
84330;SHT31;74510;42.676;23.432;2023-12-28T13:33:26;9.51;62.94
84330;SHT31;74510;42.676;23.432;2023-12-28T13:35:51;9.49;63.03
84330;SHT31;74510;42.676;23.432;2023-12-28T13:38:17;9.46;63.20
84330;SHT31;74510;42.676;23.432;2023-12-28T13:40:43;9.49;63.08
84330;SHT31;74510;42.676;23.432;2023-12-28T13:43:08;9.47;63.03
84330;SHT31;74510;42.676;23.432;2023-12-28T13:45:35;9.43;63.15
84330;SHT31;74510;42.676;23.432;2023-12-28T13:48:00;9.47;63.52
84330;SHT31;74510;42.676;23.432;2023-12-28T13:50:26;9.53;63.00
84330;SHT31;74510;42.676;23.432;2023-12-28T13:52:51;9.56;62.71
84330;SHT31;74510;42.676;23.432;2023-12-28T13:55:17;9.53;62.91
84330;SHT31;74510;42.676;23.432;2023-12-28T13:57:42;9.51;62.93
84330;SHT31;74510;42.676;23.432;2023-12-28T14:00:08;9.56;62.68
84330;SHT31;74510;42.676;23.432;2023-12-28T14:02:34;9.57;62.51
84330;SHT31;74510;42.676;23.432;2023-12-28T14:04:59;9.59;62.10
84330;SHT31;74510;42.676;23.432;2023-12-28T14:07:25;9.57;62.16
84330;SHT31;74510;42.676;23.432;2023-12-28T14:09:50;9.56;62.07
84330;SHT31;74510;42.676;23.432;2023-12-28T14:12:16;9.54;62.29
84330;SHT31;74510;42.676;23.432;2023-12-28T14:14:42;9.54;62.22
84330;SHT31;74510;42.676;23.432;2023-12-28T14:17:07;9.43;62.47
84330;SHT31;74510;42.676;23.432;2023-12-28T14:19:33;9.35;63.03
84330;SHT31;74510;42.676;23.432;2023-12-28T14:21:59;9.30;63.89
84330;SHT31;74510;42.676;23.432;2023-12-28T14:24:25;9.19;64.13
84330;SHT31;74510;42.676;23.432;2023-12-28T14:26:53;9.08;64.35
84330;SHT31;74510;42.676;23.432;2023-12-28T14:29:19;8.95;65.07
84330;SHT31;74510;42.676;23.432;2023-12-28T14:31:45;8.82;65.22
84330;SHT31;74510;42.676;23.432;2023-12-28T14:34:12;8.74;65.56
84330;SHT31;74510;42.676;23.432;2023-12-28T14:36:38;8.65;65.79
84330;SHT31;74510;42.676;23.432;2023-12-28T14:39:05;8.60;65.99
84330;SHT31;74510;42.676;23.432;2023-12-28T14:41:34;8.57;66.15
84330;SHT31;74510;42.676;23.432;2023-12-28T14:43:59;8.47;66.15
84330;SHT31;74510;42.676;23.432;2023-12-28T14:46:25;8.41;66.55
84330;SHT31;74510;42.676;23.432;2023-12-28T14:48:51;8.33;66.78
84330;SHT31;74510;42.676;23.432;2023-12-28T14:51:17;8.25;67.08
84330;SHT31;74510;42.676;23.432;2023-12-28T14:53:42;8.23;67.42
84330;SHT31;74510;42.676;23.432;2023-12-28T14:56:08;8.12;67.97
84330;SHT31;74510;42.676;23.432;2023-12-28T14:58:33;8.01;68.07
84330;SHT31;74510;42.676;23.432;2023-12-28T15:00:59;7.95;68.43
84330;SHT31;74510;42.676;23.432;2023-12-28T15:03:24;7.88;68.72
84330;SHT31;74510;42.676;23.432;2023-12-28T15:05:51;7.77;68.99
84330;SHT31;74510;42.676;23.432;2023-12-28T15:08:16;7.72;69.31
84330;SHT31;74510;42.676;23.432;2023-12-28T15:10:42;7.67;69.56
84330;SHT31;74510;42.676;23.432;2023-12-28T15:13:07;7.57;69.90
84330;SHT31;74510;42.676;23.432;2023-12-28T15:15:33;7.50;70.15
84330;SHT31;74510;42.676;23.432;2023-12-28T15:17:59;7.38;70.29
84330;SHT31;74510;42.676;23.432;2023-12-28T15:20:25;7.33;70.60
84330;SHT31;74510;42.676;23.432;2023-12-28T15:22:52;7.22;71.11
84330;SHT31;74510;42.676;23.432;2023-12-28T15:25:18;7.13;71.43
84330;SHT31;74510;42.676;23.432;2023-12-28T15:27:43;7.26;70.76
84330;SHT31;74510;42.676;23.432;2023-12-28T15:30:09;6.96;71.54
84330;SHT31;74510;42.676;23.432;2023-12-28T15:32:34;6.79;72.28
84330;SHT31;74510;42.676;23.432;2023-12-28T15:35:01;6.52;72.88
84330;SHT31;74510;42.676;23.432;2023-12-28T15:37:31;6.40;73.69